首页
METAR-TAF:

METAR-TAF

机场 :

威斯巴登, 德国

纬度: 50-03N, 经度: 008-20E, 海拔: 140米

当前天气观测

该预报发布于45分钟前的10:56 UTC
风速10节,风向
温度 20°C
湿度 35%
气压 1025 hPa
能见度10公里或以上
天空无云

METAR: ETOU 101056Z AUTO 09010KT 9999 CLR 20/04 A3027 RMK AO2 SLP250 T02030039

时间: 13:41 (11:41 UTC)

预报

该预报发布于7小时和41分钟前的04:00 UTC
预报有效从10日的 04点(UTC)到 11日的 10点(UTC)
风速5节,风向多变
能见度10公里或以上
少量云层高于7000英尺
成为
从 10日的 09点(UTC)到 10日的 10点(UTC)
风速9节,风向北转东北
能见度10公里或以上
散云层高于3000英尺
成为
从 11日的 01点(UTC)到 11日的 02点(UTC)
风速5节,风向多变
能见度10公里或以上
天空无云

TAF: ETOU 100400Z 1004/1110 VRB05KT 9999 FEW070 QNH3024INS BECMG 1009/1010 02009KT 9999 SCT030 QNH3022INS BECMG 1101/1102 VRB05KT 9999 SKC QNH3027INS TX23/1015Z TN12/1005Z

超过4000个机场的气象观测和天气预报(METAR&TAF报告)。

可查询的气象台以黄色和红色小点在地图上表示。

将鼠标移到小点上方,可查看气象台名称。

然后点击查看天气观测和预报。

如需切换地图:点击带黑十字的绿色按钮放大地图;点击带横线的绿色按钮缩小地图;或者点击绿色箭头查看邻近地区的地图。


METAR-TAF: